sensor_id;sensor_type;location;lat;lon;timestamp;P1;durP1;ratioP1;P2;durP2;ratioP2
21810;SDS011;11067;48.788;9.208;2023-05-10T00:00:11;0.90;;;0.90;;
21810;SDS011;11067;48.788;9.208;2023-05-10T00:02:37;0.80;;;0.80;;
21810;SDS011;11067;48.788;9.208;2023-05-10T00:05:03;1.17;;;0.90;;
21810;SDS011;11067;48.788;9.208;2023-05-10T00:07:30;0.88;;;0.75;;
21810;SDS011;11067;48.788;9.208;2023-05-10T00:09:55;1.30;;;0.65;;
21810;SDS011;11067;48.788;9.208;2023-05-10T00:12:21;0.70;;;0.70;;
21810;SDS011;11067;48.788;9.208;2023-05-10T00:14:46;0.70;;;0.70;;
21810;SDS011;11067;48.788;9.208;2023-05-10T00:17:12;1.95;;;0.80;;
21810;SDS011;11067;48.788;9.208;2023-05-10T00:19:38;2.77;;;0.90;;
21810;SDS011;11067;48.788;9.208;2023-05-10T00:22:03;1.83;;;0.60;;
21810;SDS011;11067;48.788;9.208;2023-05-10T00:24:29;1.08;;;0.88;;
21810;SDS011;11067;48.788;9.208;2023-05-10T00:26:54;1.03;;;0.87;;
21810;SDS011;11067;48.788;9.208;2023-05-10T00:29:20;0.53;;;0.50;;
21810;SDS011;11067;48.788;9.208;2023-05-10T00:31:45;0.50;;;0.50;;
21810;SDS011;11067;48.788;9.208;2023-05-10T00:34:11;0.30;;;0.30;;
21810;SDS011;11067;48.788;9.208;2023-05-10T00:36:36;2.50;;;0.40;;
21810;SDS011;11067;48.788;9.208;2023-05-10T00:39:02;1.50;;;0.30;;
21810;SDS011;11067;48.788;9.208;2023-05-10T00:41:28;2.50;;;0.30;;
21810;SDS011;11067;48.788;9.208;2023-05-10T00:43:56;0.43;;;0.30;;
21810;SDS011;11067;48.788;9.208;2023-05-10T00:46:22;0.73;;;0.30;;
21810;SDS011;11067;48.788;9.208;2023-05-10T00:48:48;0.60;;;0.40;;
21810;SDS011;11067;48.788;9.208;2023-05-10T00:51:14;0.50;;;0.30;;
21810;SDS011;11067;48.788;9.208;2023-05-10T00:53:40;0.50;;;0.30;;
21810;SDS011;11067;48.788;9.208;2023-05-10T00:56:06;0.60;;;0.30;;
21810;SDS011;11067;48.788;9.208;2023-05-10T00:58:31;0.30;;;0.30;;
21810;SDS011;11067;48.788;9.208;2023-05-10T01:00:58;1.00;;;0.20;;
21810;SDS011;11067;48.788;9.208;2023-05-10T01:03:24;0.20;;;0.20;;
21810;SDS011;11067;48.788;9.208;2023-05-10T01:05:50;0.30;;;0.30;;
21810;SDS011;11067;48.788;9.208;2023-05-10T01:08:15;1.57;;;0.30;;
21810;SDS011;11067;48.788;9.208;2023-05-10T01:10:41;0.20;;;0.20;;
21810;SDS011;11067;48.788;9.208;2023-05-10T01:13:08;0.50;;;0.25;;
21810;SDS011;11067;48.788;9.208;2023-05-10T01:15:34;0.45;;;0.20;;
21810;SDS011;11067;48.788;9.208;2023-05-10T01:18:01;0.20;;;0.20;;
21810;SDS011;11067;48.788;9.208;2023-05-10T01:20:28;0.80;;;0.28;;
21810;SDS011;11067;48.788;9.208;2023-05-10T01:23:10;0.70;;;0.30;;
21810;SDS011;11067;48.788;9.208;2023-05-10T01:29:40;0.30;;;0.30;;
21810;SDS011;11067;48.788;9.208;2023-05-10T01:31:57;0.20;;;0.20;;
21810;SDS011;11067;48.788;9.208;2023-05-10T01:34:27;0.50;;;0.30;;
21810;SDS011;11067;48.788;9.208;2023-05-10T01:37:06;1.50;;;0.38;;
21810;SDS011;11067;48.788;9.208;2023-05-10T01:39:49;0.38;;;0.30;;
21810;SDS011;11067;48.788;9.208;2023-05-10T01:42:23;0.45;;;0.35;;
21810;SDS011;11067;48.788;9.208;2023-05-10T01:44:56;1.30;;;0.40;;
21810;SDS011;11067;48.788;9.208;2023-05-10T01:47:35;0.20;;;0.20;;
21810;SDS011;11067;48.788;9.208;2023-05-10T01:50:06;0.90;;;0.30;;
21810;SDS011;11067;48.788;9.208;2023-05-10T01:52:41;0.40;;;0.30;;
21810;SDS011;11067;48.788;9.208;2023-05-10T01:55:09;0.40;;;0.40;;
21810;SDS011;11067;48.788;9.208;2023-05-10T01:57:39;3.73;;;0.43;;
21810;SDS011;11067;48.788;9.208;2023-05-10T02:00:07;0.70;;;0.40;;
21810;SDS011;11067;48.788;9.208;2023-05-10T02:02:37;0.30;;;0.30;;
21810;SDS011;11067;48.788;9.208;2023-05-10T02:05:05;1.10;;;0.38;;
21810;SDS011;11067;48.788;9.208;2023-05-10T02:07:33;0.40;;;0.40;;
21810;SDS011;11067;48.788;9.208;2023-05-10T02:10:01;0.40;;;0.40;;
21810;SDS011;11067;48.788;9.208;2023-05-10T02:12:29;6.07;;;1.27;;
21810;SDS011;11067;48.788;9.208;2023-05-10T02:14:57;0.50;;;0.50;;
21810;SDS011;11067;48.788;9.208;2023-05-10T02:17:26;1.43;;;0.40;;
21810;SDS011;11067;48.788;9.208;2023-05-10T02:19:53;0.30;;;0.30;;
21810;SDS011;11067;48.788;9.208;2023-05-10T02:22:21;1.10;;;0.50;;
21810;SDS011;11067;48.788;9.208;2023-05-10T02:24:48;0.55;;;0.55;;
21810;SDS011;11067;48.788;9.208;2023-05-10T02:27:17;1.70;;;0.80;;
21810;SDS011;11067;48.788;9.208;2023-05-10T02:29:45;0.60;;;0.60;;
21810;SDS011;11067;48.788;9.208;2023-05-10T02:32:12;1.50;;;0.60;;
21810;SDS011;11067;48.788;9.208;2023-05-10T02:34:39;0.40;;;0.30;;
21810;SDS011;11067;48.788;9.208;2023-05-10T02:37:05;0.98;;;0.50;;
21810;SDS011;11067;48.788;9.208;2023-05-10T02:39:31;0.30;;;0.30;;
21810;SDS011;11067;48.788;9.208;2023-05-10T02:41:57;0.40;;;0.40;;
21810;SDS011;11067;48.788;9.208;2023-05-10T02:44:23;1.08;;;0.60;;
21810;SDS011;11067;48.788;9.208;2023-05-10T02:46:53;1.27;;;0.60;;
21810;SDS011;11067;48.788;9.208;2023-05-10T02:49:20;0.40;;;0.40;;
21810;SDS011;11067;48.788;9.208;2023-05-10T02:51:50;0.90;;;0.40;;
21810;SDS011;11067;48.788;9.208;2023-05-10T02:54:20;1.02;;;0.30;;
21810;SDS011;11067;48.788;9.208;2023-05-10T02:56:53;1.48;;;0.50;;
21810;SDS011;11067;48.788;9.208;2023-05-10T02:59:22;1.98;;;0.50;;
21810;SDS011;11067;48.788;9.208;2023-05-10T03:01:48;0.90;;;0.40;;
21810;SDS011;11067;48.788;9.208;2023-05-10T03:04:13;0.50;;;0.50;;
21810;SDS011;11067;48.788;9.208;2023-05-10T03:06:40;1.10;;;0.40;;
21810;SDS011;11067;48.788;9.208;2023-05-10T03:09:05;0.50;;;0.50;;
21810;SDS011;11067;48.788;9.208;2023-05-10T03:11:37;0.40;;;0.40;;
21810;SDS011;11067;48.788;9.208;2023-05-10T03:14:21;0.60;;;0.50;;
21810;SDS011;11067;48.788;9.208;2023-05-10T03:17:11;0.60;;;0.57;;
21810;SDS011;11067;48.788;9.208;2023-05-10T03:19:58;2.30;;;0.80;;
21810;SDS011;11067;48.788;9.208;2023-05-10T03:22:34;1.00;;;0.60;;
21810;SDS011;11067;48.788;9.208;2023-05-10T03:25:06;2.00;;;0.60;;
21810;SDS011;11067;48.788;9.208;2023-05-10T03:27:33;0.60;;;0.52;;
21810;SDS011;11067;48.788;9.208;2023-05-10T03:30:01;0.90;;;0.75;;
21810;SDS011;11067;48.788;9.208;2023-05-10T03:32:28;0.70;;;0.57;;
21810;SDS011;11067;48.788;9.208;2023-05-10T03:34:56;1.00;;;0.60;;
21810;SDS011;11067;48.788;9.208;2023-05-10T03:37:22;0.50;;;0.50;;
21810;SDS011;11067;48.788;9.208;2023-05-10T03:39:47;1.70;;;1.00;;
21810;SDS011;11067;48.788;9.208;2023-05-10T03:42:13;1.80;;;0.70;;
21810;SDS011;11067;48.788;9.208;2023-05-10T03:44:39;1.77;;;0.70;;
21810;SDS011;11067;48.788;9.208;2023-05-10T03:47:05;0.80;;;0.70;;
21810;SDS011;11067;48.788;9.208;2023-05-10T03:49:30;0.80;;;0.70;;
21810;SDS011;11067;48.788;9.208;2023-05-10T03:51:56;0.80;;;0.63;;
21810;SDS011;11067;48.788;9.208;2023-05-10T03:54:21;1.35;;;0.70;;
21810;SDS011;11067;48.788;9.208;2023-05-10T03:56:47;0.70;;;0.70;;
21810;SDS011;11067;48.788;9.208;2023-05-10T03:59:13;0.68;;;0.68;;
21810;SDS011;11067;48.788;9.208;2023-05-10T04:01:38;1.35;;;0.80;;
21810;SDS011;11067;48.788;9.208;2023-05-10T04:04:04;0.70;;;0.70;;
21810;SDS011;11067;48.788;9.208;2023-05-10T04:06:29;0.80;;;0.60;;
21810;SDS011;11067;48.788;9.208;2023-05-10T04:08:55;3.67;;;0.87;;
21810;SDS011;11067;48.788;9.208;2023-05-10T04:11:21;2.40;;;0.90;;
21810;SDS011;11067;48.788;9.208;2023-05-10T04:13:47;1.60;;;0.73;;
21810;SDS011;11067;48.788;9.208;2023-05-10T04:16:13;2.87;;;1.00;;
21810;SDS011;11067;48.788;9.208;2023-05-10T04:18:38;3.10;;;0.90;;
21810;SDS011;11067;48.788;9.208;2023-05-10T04:21:10;0.80;;;0.80;;
21810;SDS011;11067;48.788;9.208;2023-05-10T04:23:37;1.07;;;0.90;;
21810;SDS011;11067;48.788;9.208;2023-05-10T04:26:02;3.33;;;1.10;;
21810;SDS011;11067;48.788;9.208;2023-05-10T04:28:28;2.28;;;1.02;;
21810;SDS011;11067;48.788;9.208;2023-05-10T04:30:59;2.70;;;1.07;;
21810;SDS011;11067;48.788;9.208;2023-05-10T04:33:26;2.63;;;1.60;;
21810;SDS011;11067;48.788;9.208;2023-05-10T04:35:51;3.63;;;1.55;;
21810;SDS011;11067;48.788;9.208;2023-05-10T04:38:17;0.80;;;0.80;;
21810;SDS011;11067;48.788;9.208;2023-05-10T04:40:42;1.23;;;0.90;;
21810;SDS011;11067;48.788;9.208;2023-05-10T04:43:08;1.00;;;0.90;;
21810;SDS011;11067;48.788;9.208;2023-05-10T04:45:33;0.90;;;0.70;;
21810;SDS011;11067;48.788;9.208;2023-05-10T04:47:59;1.40;;;1.05;;
21810;SDS011;11067;48.788;9.208;2023-05-10T04:50:24;1.53;;;0.97;;
21810;SDS011;11067;48.788;9.208;2023-05-10T04:52:50;2.77;;;1.13;;
21810;SDS011;11067;48.788;9.208;2023-05-10T04:55:15;2.08;;;1.15;;
21810;SDS011;11067;48.788;9.208;2023-05-10T04:57:41;2.03;;;1.10;;
21810;SDS011;11067;48.788;9.208;2023-05-10T05:00:07;1.60;;;1.10;;
21810;SDS011;11067;48.788;9.208;2023-05-10T05:02:33;1.93;;;0.90;;
21810;SDS011;11067;48.788;9.208;2023-05-10T05:04:58;1.20;;;0.97;;
21810;SDS011;11067;48.788;9.208;2023-05-10T05:07:24;2.33;;;1.30;;
21810;SDS011;11067;48.788;9.208;2023-05-10T05:09:50;1.40;;;1.00;;
21810;SDS011;11067;48.788;9.208;2023-05-10T05:12:15;1.50;;;0.70;;
21810;SDS011;11067;48.788;9.208;2023-05-10T05:14:41;1.93;;;0.90;;
21810;SDS011;11067;48.788;9.208;2023-05-10T05:17:06;2.42;;;1.00;;
21810;SDS011;11067;48.788;9.208;2023-05-10T05:19:32;1.40;;;0.90;;
21810;SDS011;11067;48.788;9.208;2023-05-10T05:21:58;1.30;;;1.20;;
21810;SDS011;11067;48.788;9.208;2023-05-10T05:24:23;1.48;;;0.80;;
21810;SDS011;11067;48.788;9.208;2023-05-10T05:26:49;2.90;;;1.07;;
21810;SDS011;11067;48.788;9.208;2023-05-10T05:29:14;1.13;;;0.90;;
21810;SDS011;11067;48.788;9.208;2023-05-10T05:31:40;1.85;;;0.90;;
21810;SDS011;11067;48.788;9.208;2023-05-10T05:34:05;6.53;;;1.20;;
21810;SDS011;11067;48.788;9.208;2023-05-10T05:36:31;6.57;;;1.50;;
21810;SDS011;11067;48.788;9.208;2023-05-10T05:38:56;1.40;;;1.03;;
21810;SDS011;11067;48.788;9.208;2023-05-10T05:41:22;1.53;;;1.03;;
21810;SDS011;11067;48.788;9.208;2023-05-10T05:43:49;1.15;;;1.02;;
21810;SDS011;11067;48.788;9.208;2023-05-10T05:46:15;1.92;;;0.82;;
21810;SDS011;11067;48.788;9.208;2023-05-10T05:48:40;1.80;;;1.07;;
21810;SDS011;11067;48.788;9.208;2023-05-10T05:51:06;4.90;;;1.80;;
21810;SDS011;11067;48.788;9.208;2023-05-10T05:53:31;1.95;;;1.33;;
21810;SDS011;11067;48.788;9.208;2023-05-10T05:55:57;1.40;;;1.00;;
21810;SDS011;11067;48.788;9.208;2023-05-10T05:58:23;3.20;;;1.02;;
21810;SDS011;11067;48.788;9.208;2023-05-10T06:00:50;1.20;;;0.98;;
21810;SDS011;11067;48.788;9.208;2023-05-10T06:03:16;0.98;;;0.90;;
21810;SDS011;11067;48.788;9.208;2023-05-10T06:05:42;3.67;;;1.35;;
21810;SDS011;11067;48.788;9.208;2023-05-10T06:08:08;2.22;;;1.00;;
21810;SDS011;11067;48.788;9.208;2023-05-10T06:10:34;1.50;;;1.25;;
21810;SDS011;11067;48.788;9.208;2023-05-10T06:13:00;1.00;;;0.90;;
21810;SDS011;11067;48.788;9.208;2023-05-10T06:15:26;1.52;;;1.00;;
21810;SDS011;11067;48.788;9.208;2023-05-10T06:17:52;3.25;;;1.05;;
21810;SDS011;11067;48.788;9.208;2023-05-10T06:20:17;1.70;;;1.10;;
21810;SDS011;11067;48.788;9.208;2023-05-10T06:22:43;2.43;;;1.40;;
21810;SDS011;11067;48.788;9.208;2023-05-10T06:25:09;3.40;;;1.20;;
21810;SDS011;11067;48.788;9.208;2023-05-10T06:27:34;7.05;;;1.83;;
21810;SDS011;11067;48.788;9.208;2023-05-10T06:30:00;1.50;;;1.17;;
21810;SDS011;11067;48.788;9.208;2023-05-10T06:32:26;1.50;;;1.20;;
21810;SDS011;11067;48.788;9.208;2023-05-10T06:34:51;1.60;;;1.10;;
21810;SDS011;11067;48.788;9.208;2023-05-10T06:37:17;2.75;;;1.45;;
21810;SDS011;11067;48.788;9.208;2023-05-10T06:39:42;2.10;;;1.10;;
21810;SDS011;11067;48.788;9.208;2023-05-10T06:42:08;1.93;;;1.23;;
21810;SDS011;11067;48.788;9.208;2023-05-10T06:44:34;1.90;;;1.10;;
21810;SDS011;11067;48.788;9.208;2023-05-10T06:46:59;2.80;;;1.30;;
21810;SDS011;11067;48.788;9.208;2023-05-10T06:49:25;2.60;;;1.50;;
21810;SDS011;11067;48.788;9.208;2023-05-10T06:51:50;1.50;;;1.23;;
21810;SDS011;11067;48.788;9.208;2023-05-10T06:54:16;2.67;;;1.30;;
21810;SDS011;11067;48.788;9.208;2023-05-10T06:56:42;1.33;;;1.10;;
21810;SDS011;11067;48.788;9.208;2023-05-10T06:59:08;4.57;;;1.40;;
21810;SDS011;11067;48.788;9.208;2023-05-10T07:01:34;2.10;;;1.00;;
21810;SDS011;11067;48.788;9.208;2023-05-10T07:03:59;2.90;;;1.45;;
21810;SDS011;11067;48.788;9.208;2023-05-10T07:06:25;2.10;;;1.20;;
21810;SDS011;11067;48.788;9.208;2023-05-10T07:08:50;1.70;;;1.10;;
21810;SDS011;11067;48.788;9.208;2023-05-10T07:11:16;1.88;;;1.20;;
21810;SDS011;11067;48.788;9.208;2023-05-10T07:13:42;3.00;;;1.40;;
21810;SDS011;11067;48.788;9.208;2023-05-10T07:16:09;1.20;;;1.10;;
21810;SDS011;11067;48.788;9.208;2023-05-10T07:18:35;1.10;;;0.90;;
21810;SDS011;11067;48.788;9.208;2023-05-10T07:21:01;3.83;;;1.23;;
21810;SDS011;11067;48.788;9.208;2023-05-10T07:23:26;2.53;;;1.30;;
21810;SDS011;11067;48.788;9.208;2023-05-10T07:25:52;2.30;;;1.40;;
21810;SDS011;11067;48.788;9.208;2023-05-10T07:28:18;2.27;;;1.20;;
21810;SDS011;11067;48.788;9.208;2023-05-10T07:30:44;1.80;;;1.20;;
21810;SDS011;11067;48.788;9.208;2023-05-10T07:33:10;3.60;;;1.20;;
21810;SDS011;11067;48.788;9.208;2023-05-10T07:35:37;1.17;;;1.08;;
21810;SDS011;11067;48.788;9.208;2023-05-10T07:38:03;2.67;;;1.30;;
21810;SDS011;11067;48.788;9.208;2023-05-10T07:40:28;3.00;;;1.40;;
21810;SDS011;11067;48.788;9.208;2023-05-10T07:42:54;2.92;;;1.20;;
21810;SDS011;11067;48.788;9.208;2023-05-10T07:45:20;2.60;;;1.10;;
21810;SDS011;11067;48.788;9.208;2023-05-10T07:47:45;3.60;;;1.20;;
21810;SDS011;11067;48.788;9.208;2023-05-10T07:50:11;6.13;;;1.48;;
21810;SDS011;11067;48.788;9.208;2023-05-10T07:52:36;4.23;;;1.13;;
21810;SDS011;11067;48.788;9.208;2023-05-10T07:55:02;2.65;;;1.13;;
21810;SDS011;11067;48.788;9.208;2023-05-10T07:57:28;1.70;;;1.40;;
21810;SDS011;11067;48.788;9.208;2023-05-10T07:59:53;2.90;;;1.10;;
21810;SDS011;11067;48.788;9.208;2023-05-10T08:02:19;2.80;;;0.90;;
21810;SDS011;11067;48.788;9.208;2023-05-10T08:04:44;2.50;;;1.10;;
21810;SDS011;11067;48.788;9.208;2023-05-10T08:07:10;1.20;;;0.80;;
21810;SDS011;11067;48.788;9.208;2023-05-10T08:09:36;1.63;;;0.75;;
21810;SDS011;11067;48.788;9.208;2023-05-10T08:12:01;0.93;;;0.80;;
21810;SDS011;11067;48.788;9.208;2023-05-10T08:14:28;0.70;;;0.70;;
21810;SDS011;11067;48.788;9.208;2023-05-10T08:16:54;1.80;;;1.10;;
21810;SDS011;11067;48.788;9.208;2023-05-10T08:19:19;0.60;;;0.60;;
21810;SDS011;11067;48.788;9.208;2023-05-10T08:21:46;0.95;;;0.73;;
21810;SDS011;11067;48.788;9.208;2023-05-10T08:24:12;1.00;;;0.90;;
21810;SDS011;11067;48.788;9.208;2023-05-10T08:26:37;1.35;;;0.80;;
21810;SDS011;11067;48.788;9.208;2023-05-10T08:29:03;1.90;;;0.80;;
21810;SDS011;11067;48.788;9.208;2023-05-10T08:31:28;1.40;;;0.70;;
21810;SDS011;11067;48.788;9.208;2023-05-10T08:33:54;2.40;;;0.80;;
21810;SDS011;11067;48.788;9.208;2023-05-10T08:36:19;1.40;;;0.90;;
21810;SDS011;11067;48.788;9.208;2023-05-10T08:38:50;1.48;;;0.80;;
21810;SDS011;11067;48.788;9.208;2023-05-10T08:41:16;1.00;;;0.90;;
21810;SDS011;11067;48.788;9.208;2023-05-10T08:43:45;3.63;;;0.80;;
21810;SDS011;11067;48.788;9.208;2023-05-10T08:46:12;1.92;;;0.80;;
21810;SDS011;11067;48.788;9.208;2023-05-10T08:48:41;0.60;;;0.60;;
21810;SDS011;11067;48.788;9.208;2023-05-10T08:51:08;1.10;;;0.70;;
21810;SDS011;11067;48.788;9.208;2023-05-10T08:53:35;1.97;;;0.70;;
21810;SDS011;11067;48.788;9.208;2023-05-10T08:56:02;1.17;;;0.70;;
21810;SDS011;11067;48.788;9.208;2023-05-10T08:58:28;1.73;;;0.70;;
21810;SDS011;11067;48.788;9.208;2023-05-10T09:00:54;2.30;;;0.88;;
21810;SDS011;11067;48.788;9.208;2023-05-10T09:03:20;0.60;;;0.60;;
21810;SDS011;11067;48.788;9.208;2023-05-10T09:05:46;1.83;;;0.75;;
21810;SDS011;11067;48.788;9.208;2023-05-10T09:08:14;1.60;;;0.75;;
21810;SDS011;11067;48.788;9.208;2023-05-10T09:10:42;1.02;;;0.70;;
21810;SDS011;11067;48.788;9.208;2023-05-10T09:13:12;3.45;;;1.60;;
21810;SDS011;11067;48.788;9.208;2023-05-10T09:15:38;0.93;;;0.60;;
21810;SDS011;11067;48.788;9.208;2023-05-10T09:18:04;0.50;;;0.50;;
21810;SDS011;11067;48.788;9.208;2023-05-10T09:20:30;0.67;;;0.43;;
21810;SDS011;11067;48.788;9.208;2023-05-10T09:22:56;1.63;;;0.70;;
21810;SDS011;11067;48.788;9.208;2023-05-10T09:25:21;0.67;;;0.60;;
21810;SDS011;11067;48.788;9.208;2023-05-10T09:27:47;1.77;;;0.50;;
21810;SDS011;11067;48.788;9.208;2023-05-10T09:30:17;1.50;;;0.50;;
21810;SDS011;11067;48.788;9.208;2023-05-10T09:32:53;1.30;;;0.43;;
21810;SDS011;11067;48.788;9.208;2023-05-10T09:35:20;2.08;;;0.63;;
21810;SDS011;11067;48.788;9.208;2023-05-10T09:37:48;1.05;;;0.50;;
21810;SDS011;11067;48.788;9.208;2023-05-10T09:40:22;0.67;;;0.63;;
21810;SDS011;11067;48.788;9.208;2023-05-10T09:43:03;0.63;;;0.60;;
21810;SDS011;11067;48.788;9.208;2023-05-10T09:45:31;0.95;;;0.60;;
21810;SDS011;11067;48.788;9.208;2023-05-10T09:47:59;1.50;;;0.65;;
21810;SDS011;11067;48.788;9.208;2023-05-10T09:50:26;0.50;;;0.50;;
21810;SDS011;11067;48.788;9.208;2023-05-10T09:52:59;1.77;;;0.80;;
21810;SDS011;11067;48.788;9.208;2023-05-10T09:55:26;0.68;;;0.60;;
21810;SDS011;11067;48.788;9.208;2023-05-10T09:58:09;3.20;;;1.08;;
21810;SDS011;11067;48.788;9.208;2023-05-10T10:00:41;1.00;;;0.60;;
21810;SDS011;11067;48.788;9.208;2023-05-10T10:03:12;0.77;;;0.60;;
21810;SDS011;11067;48.788;9.208;2023-05-10T10:05:40;0.65;;;0.50;;
21810;SDS011;11067;48.788;9.208;2023-05-10T10:08:07;0.80;;;0.80;;
21810;SDS011;11067;48.788;9.208;2023-05-10T10:10:33;1.53;;;0.70;;
21810;SDS011;11067;48.788;9.208;2023-05-10T10:12:59;1.17;;;0.60;;
21810;SDS011;11067;48.788;9.208;2023-05-10T10:15:25;1.70;;;0.60;;
21810;SDS011;11067;48.788;9.208;2023-05-10T10:17:52;1.10;;;0.80;;
21810;SDS011;11067;48.788;9.208;2023-05-10T10:20:19;0.60;;;0.60;;
21810;SDS011;11067;48.788;9.208;2023-05-10T10:22:46;0.70;;;0.70;;
21810;SDS011;11067;48.788;9.208;2023-05-10T10:25:12;1.05;;;0.73;;
21810;SDS011;11067;48.788;9.208;2023-05-10T10:27:45;1.00;;;0.60;;
21810;SDS011;11067;48.788;9.208;2023-05-10T10:35:59;0.60;;;0.60;;
21810;SDS011;11067;48.788;9.208;2023-05-10T10:38:35;1.40;;;0.70;;
21810;SDS011;11067;48.788;9.208;2023-05-10T10:41:03;0.95;;;0.80;;
21810;SDS011;11067;48.788;9.208;2023-05-10T10:43:34;0.50;;;0.50;;
21810;SDS011;11067;48.788;9.208;2023-05-10T10:48:39;0.70;;;0.50;;
21810;SDS011;11067;48.788;9.208;2023-05-10T10:51:16;1.05;;;0.70;;
21810;SDS011;11067;48.788;9.208;2023-05-10T10:53:42;2.60;;;0.77;;
21810;SDS011;11067;48.788;9.208;2023-05-10T10:56:09;0.97;;;0.70;;
21810;SDS011;11067;48.788;9.208;2023-05-10T10:58:37;1.40;;;0.90;;
21810;SDS011;11067;48.788;9.208;2023-05-10T11:01:13;0.65;;;0.60;;
21810;SDS011;11067;48.788;9.208;2023-05-10T11:06:44;1.15;;;0.55;;
21810;SDS011;11067;48.788;9.208;2023-05-10T11:09:11;0.93;;;0.50;;
21810;SDS011;11067;48.788;9.208;2023-05-10T11:11:53;0.52;;;0.50;;
21810;SDS011;11067;48.788;9.208;2023-05-10T11:14:23;0.70;;;0.57;;
21810;SDS011;11067;48.788;9.208;2023-05-10T11:16:49;0.70;;;0.50;;
21810;SDS011;11067;48.788;9.208;2023-05-10T11:19:15;1.50;;;0.40;;
21810;SDS011;11067;48.788;9.208;2023-05-10T11:21:48;5.60;;;0.80;;
21810;SDS011;11067;48.788;9.208;2023-05-10T11:24:15;0.98;;;0.73;;
21810;SDS011;11067;48.788;9.208;2023-05-10T11:26:45;1.90;;;0.70;;
21810;SDS011;11067;48.788;9.208;2023-05-10T11:29:15;2.88;;;1.00;;
21810;SDS011;11067;48.788;9.208;2023-05-10T11:31:44;2.25;;;0.80;;
21810;SDS011;11067;48.788;9.208;2023-05-10T11:34:10;1.73;;;0.95;;
21810;SDS011;11067;48.788;9.208;2023-05-10T11:36:36;4.22;;;1.20;;
21810;SDS011;11067;48.788;9.208;2023-05-10T11:39:02;2.72;;;0.80;;
21810;SDS011;11067;48.788;9.208;2023-05-10T11:41:29;1.67;;;0.68;;
21810;SDS011;11067;48.788;9.208;2023-05-10T11:43:55;3.77;;;0.80;;
21810;SDS011;11067;48.788;9.208;2023-05-10T11:46:23;3.28;;;0.75;;
21810;SDS011;11067;48.788;9.208;2023-05-10T11:48:50;0.70;;;0.70;;
21810;SDS011;11067;48.788;9.208;2023-05-10T11:51:25;0.47;;;0.47;;
21810;SDS011;11067;48.788;9.208;2023-05-10T11:53:52;0.60;;;0.50;;
21810;SDS011;11067;48.788;9.208;2023-05-10T11:56:18;1.10;;;0.70;;
21810;SDS011;11067;48.788;9.208;2023-05-10T11:58:53;10.05;;;1.67;;
21810;SDS011;11067;48.788;9.208;2023-05-10T12:01:20;1.65;;;0.90;;
21810;SDS011;11067;48.788;9.208;2023-05-10T12:03:47;1.40;;;0.70;;
21810;SDS011;11067;48.788;9.208;2023-05-10T12:06:14;2.20;;;1.00;;
21810;SDS011;11067;48.788;9.208;2023-05-10T12:08:43;1.98;;;0.80;;
21810;SDS011;11067;48.788;9.208;2023-05-10T12:11:11;1.92;;;0.80;;
21810;SDS011;11067;48.788;9.208;2023-05-10T12:13:39;1.10;;;0.90;;
21810;SDS011;11067;48.788;9.208;2023-05-10T12:16:15;10.52;;;1.42;;
21810;SDS011;11067;48.788;9.208;2023-05-10T12:18:53;2.37;;;1.00;;
21810;SDS011;11067;48.788;9.208;2023-05-10T12:21:22;2.08;;;0.93;;
21810;SDS011;11067;48.788;9.208;2023-05-10T12:23:48;0.73;;;0.70;;
21810;SDS011;11067;48.788;9.208;2023-05-10T12:26:15;2.08;;;1.00;;
21810;SDS011;11067;48.788;9.208;2023-05-10T12:28:41;3.78;;;0.90;;
21810;SDS011;11067;48.788;9.208;2023-05-10T12:31:07;2.30;;;1.00;;
21810;SDS011;11067;48.788;9.208;2023-05-10T12:33:36;2.40;;;0.90;;
21810;SDS011;11067;48.788;9.208;2023-05-10T12:36:10;1.50;;;1.00;;
21810;SDS011;11067;48.788;9.208;2023-05-10T12:38:41;3.22;;;1.15;;
21810;SDS011;11067;48.788;9.208;2023-05-10T12:41:15;1.40;;;0.83;;
21810;SDS011;11067;48.788;9.208;2023-05-10T12:43:41;1.93;;;1.00;;
21810;SDS011;11067;48.788;9.208;2023-05-10T12:46:11;1.40;;;0.70;;
21810;SDS011;11067;48.788;9.208;2023-05-10T12:48:37;2.03;;;1.00;;
21810;SDS011;11067;48.788;9.208;2023-05-10T12:51:04;3.33;;;0.97;;
21810;SDS011;11067;48.788;9.208;2023-05-10T12:53:34;2.53;;;1.15;;
21810;SDS011;11067;48.788;9.208;2023-05-10T12:55:59;5.80;;;1.55;;
21810;SDS011;11067;48.788;9.208;2023-05-10T12:58:25;3.27;;;0.90;;
21810;SDS011;11067;48.788;9.208;2023-05-10T13:00:50;2.47;;;0.90;;
21810;SDS011;11067;48.788;9.208;2023-05-10T13:03:17;2.80;;;1.13;;
21810;SDS011;11067;48.788;9.208;2023-05-10T13:05:42;3.55;;;1.05;;
21810;SDS011;11067;48.788;9.208;2023-05-10T13:08:08;1.90;;;0.97;;
21810;SDS011;11067;48.788;9.208;2023-05-10T13:10:33;8.07;;;1.60;;
21810;SDS011;11067;48.788;9.208;2023-05-10T13:12:59;2.53;;;1.08;;
21810;SDS011;11067;48.788;9.208;2023-05-10T13:15:25;2.87;;;1.70;;
21810;SDS011;11067;48.788;9.208;2023-05-10T13:17:50;6.43;;;2.38;;
21810;SDS011;11067;48.788;9.208;2023-05-10T13:20:16;2.83;;;1.50;;
21810;SDS011;11067;48.788;9.208;2023-05-10T13:22:44;5.70;;;1.37;;
21810;SDS011;11067;48.788;9.208;2023-05-10T13:25:10;10.38;;;1.70;;
21810;SDS011;11067;48.788;9.208;2023-05-10T13:27:37;6.60;;;3.13;;
21810;SDS011;11067;48.788;9.208;2023-05-10T13:30:18;1.50;;;1.10;;
21810;SDS011;11067;48.788;9.208;2023-05-10T13:32:44;1.53;;;0.97;;
21810;SDS011;11067;48.788;9.208;2023-05-10T13:35:10;3.40;;;1.00;;
21810;SDS011;11067;48.788;9.208;2023-05-10T13:37:36;6.18;;;1.80;;
21810;SDS011;11067;48.788;9.208;2023-05-10T13:40:02;1.60;;;0.85;;
21810;SDS011;11067;48.788;9.208;2023-05-10T13:42:29;1.95;;;0.90;;
21810;SDS011;11067;48.788;9.208;2023-05-10T13:44:54;6.30;;;2.60;;
21810;SDS011;11067;48.788;9.208;2023-05-10T13:47:20;3.40;;;1.00;;
21810;SDS011;11067;48.788;9.208;2023-05-10T13:49:46;2.67;;;1.13;;
21810;SDS011;11067;48.788;9.208;2023-05-10T13:52:12;3.50;;;1.00;;
21810;SDS011;11067;48.788;9.208;2023-05-10T13:54:38;3.77;;;1.53;;
21810;SDS011;11067;48.788;9.208;2023-05-10T13:57:04;2.13;;;1.10;;
21810;SDS011;11067;48.788;9.208;2023-05-10T13:59:30;2.30;;;1.10;;
21810;SDS011;11067;48.788;9.208;2023-05-10T14:01:59;8.63;;;1.25;;
21810;SDS011;11067;48.788;9.208;2023-05-10T14:04:27;5.20;;;1.20;;
21810;SDS011;11067;48.788;9.208;2023-05-10T14:06:53;3.75;;;1.17;;
21810;SDS011;11067;48.788;9.208;2023-05-10T14:09:18;1.73;;;0.95;;
21810;SDS011;11067;48.788;9.208;2023-05-10T14:11:45;3.10;;;0.98;;
21810;SDS011;11067;48.788;9.208;2023-05-10T14:14:10;2.05;;;0.93;;
21810;SDS011;11067;48.788;9.208;2023-05-10T14:16:37;3.97;;;1.20;;
21810;SDS011;11067;48.788;9.208;2023-05-10T14:19:03;1.53;;;0.80;;
21810;SDS011;11067;48.788;9.208;2023-05-10T14:21:28;1.15;;;0.70;;
21810;SDS011;11067;48.788;9.208;2023-05-10T14:23:56;1.85;;;1.27;;
21810;SDS011;11067;48.788;9.208;2023-05-10T14:26:22;3.25;;;0.90;;
21810;SDS011;11067;48.788;9.208;2023-05-10T14:28:48;2.43;;;1.00;;
21810;SDS011;11067;48.788;9.208;2023-05-10T14:31:13;3.05;;;1.15;;
21810;SDS011;11067;48.788;9.208;2023-05-10T14:33:39;0.80;;;0.70;;
21810;SDS011;11067;48.788;9.208;2023-05-10T14:36:05;1.35;;;1.13;;
21810;SDS011;11067;48.788;9.208;2023-05-10T14:38:31;2.30;;;1.00;;
21810;SDS011;11067;48.788;9.208;2023-05-10T14:40:57;2.80;;;0.80;;
21810;SDS011;11067;48.788;9.208;2023-05-10T14:43:23;1.73;;;1.00;;
21810;SDS011;11067;48.788;9.208;2023-05-10T14:45:49;3.50;;;1.27;;
21810;SDS011;11067;48.788;9.208;2023-05-10T14:48:14;3.05;;;1.00;;
21810;SDS011;11067;48.788;9.208;2023-05-10T14:50:41;2.97;;;1.03;;
21810;SDS011;11067;48.788;9.208;2023-05-10T14:53:06;1.23;;;0.90;;
21810;SDS011;11067;48.788;9.208;2023-05-10T14:55:32;2.27;;;0.90;;
21810;SDS011;11067;48.788;9.208;2023-05-10T14:57:57;2.23;;;0.90;;
21810;SDS011;11067;48.788;9.208;2023-05-10T15:00:23;0.93;;;0.63;;
21810;SDS011;11067;48.788;9.208;2023-05-10T15:02:49;2.58;;;0.98;;